Time;durP1;ratioP1;P1;durP2;ratioP2;P2;SDS_P1;SDS_P2;PMS_P1;PMS_P2;Temp;Humidity;BMP_temperature;BMP_pressure;BME280_temperature;BME280_humidity;BME280_pressure;Samples;Min_cycle;Max_cycle;Signal;HPM_P1;HPM_P2
2021/08/12 00:01:18;;;;;;;6.00;4.00;;;19.80;90.40;;;;;;4864107;29;20061;-86
2021/08/12 00:03:45;;;;;;;5.35;3.90;;;19.80;90.40;;;;;;4863812;29;20050;-86
2021/08/12 00:06:12;;;;;;;5.68;3.80;;;19.70;90.40;;;;;;4863120;29;20053;-86
2021/08/12 00:08:38;;;;;;;6.15;3.90;;;19.60;90.60;;;;;;4864189;29;20506;-85
2021/08/12 00:11:04;;;;;;;5.72;3.85;;;19.60;90.70;;;;;;4864155;29;20061;-86
2021/08/12 00:13:30;;;;;;;6.53;4.30;;;19.50;90.70;;;;;;4863163;29;20578;-85
2021/08/12 00:15:56;;;;;;;6.45;4.20;;;19.50;90.80;;;;;;4863668;29;20057;-85
2021/08/12 00:18:22;;;;;;;6.20;4.43;;;19.40;90.80;;;;;;4863830;29;20403;-85
2021/08/12 00:20:47;;;;;;;6.13;4.15;;;19.30;90.80;;;;;;4862909;29;20125;-85
2021/08/12 00:23:13;;;;;;;7.00;4.75;;;19.30;90.90;;;;;;4863429;29;20060;-85
2021/08/12 00:25:39;;;;;;;6.35;5.00;;;19.30;90.90;;;;;;4863271;29;20414;-85
2021/08/12 00:28:05;;;;;;;7.03;5.28;;;19.30;90.90;;;;;;4863247;29;20077;-86
2021/08/12 00:30:31;;;;;;;7.80;5.22;;;19.20;90.90;;;;;;4864302;29;20085;-85
2021/08/12 00:32:57;;;;;;;7.00;5.00;;;19.20;90.90;;;;;;4863061;29;20120;-85
2021/08/12 00:35:22;;;;;;;6.90;5.13;;;19.10;90.90;;;;;;4863561;29;20049;-85
2021/08/12 00:37:48;;;;;;;8.02;5.47;;;19.10;90.90;;;;;;4863367;29;20049;-86
2021/08/12 00:40:16;;;;;;;6.93;5.00;;;19.10;90.80;;;;;;4862894;29;20049;-85
2021/08/12 00:42:42;;;;;;;6.25;4.70;;;19.10;90.90;;;;;;4863655;29;20056;-85
2021/08/12 00:45:08;;;;;;;6.50;4.82;;;19.10;90.80;;;;;;4863459;29;20058;-85
2021/08/12 00:47:34;;;;;;;5.57;4.13;;;19.10;90.80;;;;;;4862633;29;20131;-86
2021/08/12 00:50:00;;;;;;;6.53;4.65;;;19.10;90.70;;;;;;4863281;29;20564;-87
2021/08/12 00:52:25;;;;;;;6.45;4.47;;;19.10;90.70;;;;;;4863364;29;20045;-85
2021/08/12 00:54:54;;;;;;;6.32;4.35;;;19.10;90.70;;;;;;4862685;29;20080;-86
2021/08/12 00:57:20;;;;;;;6.13;4.50;;;19.10;90.70;;;;;;4863182;29;20049;-85
2021/08/12 00:59:46;;;;;;;6.35;4.38;;;19.00;90.70;;;;;;4862947;29;20084;-85
2021/08/12 01:02:13;;;;;;;6.03;4.47;;;19.00;90.70;;;;;;4862472;29;20456;-85
2021/08/12 01:04:43;;;;;;;6.38;4.40;;;19.00;90.70;;;;;;4862883;29;20054;-85
2021/08/12 01:07:15;;;;;;;6.20;4.38;;;19.00;90.70;;;;;;4863033;29;20049;-85
2021/08/12 01:09:49;;;;;;;5.80;4.22;;;18.90;90.80;;;;;;4862445;29;20057;-86
2021/08/12 01:12:27;;;;;;;6.07;4.50;;;18.90;90.80;;;;;;4862798;29;20049;-85
2021/08/12 01:15:07;;;;;;;9.20;4.40;;;18.80;90.60;;;;;;4862860;29;20057;-85
2021/08/12 01:17:43;;;;;;;5.72;4.32;;;18.80;90.90;;;;;;4862854;29;20053;-85
2021/08/12 01:20:47;;;;;;;6.05;4.53;;;18.70;90.80;;;;;;4862869;29;20057;-85
2021/08/12 01:23:14;;;;;;;;;;;18.70;90.40;;;;;;4862568;29;20054;-85
2021/08/12 01:25:42;;;;;;;5.57;4.30;;;18.60;89.90;;;;;;4862394;29;19924;-86
2021/08/12 01:28:17;;;;;;;5.70;3.97;;;18.60;90.90;;;;;;4862808;29;20053;-86
2021/08/12 01:31:11;;;;;;;5.82;4.30;;;18.60;90.70;;;;;;4862423;29;20057;-86
2021/08/12 01:33:53;;;;;;;5.70;4.35;;;18.60;90.50;;;;;;4862787;29;20053;-86
2021/08/12 01:36:20;;;;;;;5.32;4.32;;;18.60;90.60;;;;;;4861951;29;20513;-85
2021/08/12 01:38:48;;;;;;;5.55;4.57;;;18.60;90.70;;;;;;4862661;29;20451;-86
2021/08/12 01:41:15;;;;;;;5.60;4.43;;;18.60;91.00;;;;;;4862892;29;20121;-86
2021/08/12 01:43:41;;;;;;;5.80;4.53;;;18.50;90.60;;;;;;4861729;29;20464;-86
2021/08/12 01:46:08;;;;;;;5.93;4.28;;;18.50;90.60;;;;;;4862469;29;20057;-86
2021/08/12 01:48:35;;;;;;;5.82;4.40;;;18.50;90.70;;;;;;4862421;29;20049;-85
2021/08/12 01:51:03;;;;;;;6.18;4.97;;;18.40;90.70;;;;;;4861737;29;20527;-86
2021/08/12 01:53:31;;;;;;;6.07;4.80;;;18.40;90.70;;;;;;4862530;29;20142;-85
2021/08/12 01:55:59;;;;;;;6.30;4.72;;;18.40;90.80;;;;;;4862474;29;20140;-86
2021/08/12 01:58:26;;;;;;;5.97;4.78;;;18.40;91.10;;;;;;4861471;29;20149;-86
2021/08/12 02:00:54;;;;;;;5.95;4.47;;;18.30;90.80;;;;;;4862473;29;20060;-85
2021/08/12 02:03:21;;;;;;;5.70;4.30;;;18.30;90.80;;;;;;4862412;29;20049;-86
2021/08/12 02:05:49;;;;;;;6.72;5.20;;;18.20;90.90;;;;;;4861645;29;20053;-86
2021/08/12 02:08:19;;;;;;;5.80;4.68;;;18.20;91.00;;;;;;4861971;29;20056;-85
2021/08/12 02:10:45;;;;;;;6.88;4.85;;;18.20;91.20;;;;;;4861975;29;20057;-86
2021/08/12 02:13:11;;;;;;;6.25;4.88;;;18.10;91.20;;;;;;4861026;29;20081;-86
2021/08/12 02:15:37;;;;;;;6.53;5.22;;;18.10;91.30;;;;;;4862302;29;20521;-85
2021/08/12 02:18:04;;;;;;;7.80;5.20;;;18.10;91.40;;;;;;4862268;29;20133;-86
2021/08/12 02:20:30;;;;;;;6.70;5.25;;;18.00;91.40;;;;;;4861812;29;20060;-86
2021/08/12 02:23:07;;;;;;;6.40;4.80;;;18.00;91.40;;;;;;4861922;29;20505;-86
2021/08/12 02:25:54;;;;;;;7.22;4.63;;;18.00;91.40;;;;;;4860875;29;20065;-85
2021/08/12 02:28:21;;;;;;;7.30;5.40;;;17.90;91.30;;;;;;4861494;29;20122;-85
2021/08/12 02:30:51;;;;;;;6.57;5.30;;;17.90;91.50;;;;;;4861715;29;20061;-86
2021/08/12 02:33:20;;;;;;;6.25;4.65;;;17.80;91.60;;;;;;4861378;29;20137;-85
2021/08/12 02:35:47;;;;;;;6.60;5.20;;;17.80;91.70;;;;;;4861948;29;20133;-85
2021/08/12 02:38:14;;;;;;;8.70;5.30;;;17.80;91.60;;;;;;4861923;29;20045;-86
2021/08/12 02:40:41;;;;;;;5.88;4.47;;;17.80;91.70;;;;;;4861008;29;20084;-85
2021/08/12 02:43:08;;;;;;;6.43;4.75;;;17.70;91.70;;;;;;4861473;29;20491;-85
2021/08/12 02:45:34;;;;;;;5.70;4.43;;;17.70;91.70;;;;;;4861368;29;20049;-85
2021/08/12 02:48:03;;;;;;;6.00;4.60;;;17.70;91.80;;;;;;4860746;29;20132;-85
2021/08/12 02:50:31;;;;;;;5.60;4.38;;;17.70;91.70;;;;;;4861360;29;20084;-84
2021/08/12 02:52:58;;;;;;;6.43;4.38;;;17.60;91.70;;;;;;4861640;29;20046;-85
2021/08/12 02:55:26;;;;;;;5.75;4.75;;;17.60;91.70;;;;;;4860600;29;20491;-85
2021/08/12 02:57:52;;;;;;;5.70;4.13;;;17.60;91.70;;;;;;4861371;29;20058;-85
2021/08/12 03:00:18;;;;;;;5.50;4.15;;;17.50;91.70;;;;;;4861438;29;20083;-85
2021/08/12 03:02:49;;;;;;;5.85;4.18;;;17.50;91.70;;;;;;4860420;29;20086;-85
2021/08/12 03:05:15;;;;;;;6.20;4.43;;;17.50;91.80;;;;;;4861277;29;20102;-85
2021/08/12 03:07:45;;;;;;;5.55;4.15;;;17.40;91.80;;;;;;4860290;29;20050;-85
2021/08/12 03:10:18;;;;;;;5.40;4.30;;;17.40;91.80;;;;;;4860924;29;20060;-85
2021/08/12 03:12:44;;;;;;;5.78;4.55;;;17.40;91.80;;;;;;4861334;29;20069;-84
2021/08/12 03:15:11;;;;;;;6.15;4.47;;;17.40;91.80;;;;;;4860417;29;20061;-85
2021/08/12 03:17:38;;;;;;;5.38;4.30;;;17.40;91.90;;;;;;4861279;29;20410;-85
2021/08/12 03:20:05;;;;;;;7.20;4.40;;;17.30;91.90;;;;;;4861375;29;20083;-85
2021/08/12 03:22:31;;;;;;;5.55;4.18;;;17.30;91.90;;;;;;4860669;29;20486;-85
2021/08/12 03:24:56;;;;;;;5.55;4.10;;;17.30;91.90;;;;;;4864569;29;20125;-85
2021/08/12 03:27:22;;;;;;;5.28;4.00;;;17.20;91.90;;;;;;4864710;29;20069;-85
2021/08/12 03:29:50;;;;;;;5.53;4.28;;;17.20;91.90;;;;;;4862938;29;20537;-85
2021/08/12 03:32:17;;;;;;;5.85;4.40;;;17.20;92.00;;;;;;4864910;29;20049;-85
2021/08/12 03:34:43;;;;;;;5.75;4.22;;;17.20;92.00;;;;;;4864862;29;20109;-85
2021/08/12 03:37:08;;;;;;;5.85;4.00;;;17.20;91.90;;;;;;4863798;29;20470;-86
2021/08/12 03:39:34;;;;;;;5.15;3.95;;;17.10;91.90;;;;;;4865294;29;20064;-85
2021/08/12 03:42:02;;;;;;;6.13;4.22;;;17.10;92.00;;;;;;4865127;29;20487;-85
2021/08/12 03:44:28;;;;;;;5.40;3.85;;;17.10;92.20;;;;;;4864032;29;20136;-85
2021/08/12 03:46:54;;;;;;;5.70;4.20;;;17.10;92.10;;;;;;4864728;29;20459;-85
2021/08/12 03:49:19;;;;;;;5.68;3.95;;;17.10;92.40;;;;;;4864786;29;20488;-85
2021/08/12 03:51:45;;;;;;;6.43;4.40;;;17.10;92.20;;;;;;4863593;29;20072;-85
2021/08/12 03:54:11;;;;;;;5.80;4.47;;;17.10;92.30;;;;;;4864825;29;20525;-85
2021/08/12 03:56:37;;;;;;;5.97;4.32;;;17.10;92.30;;;;;;4865099;29;20057;-85
2021/08/12 03:59:05;;;;;;;6.60;4.40;;;17.00;92.10;;;;;;4863882;29;20061;-85
2021/08/12 04:01:31;;;;;;;6.03;4.20;;;17.00;92.30;;;;;;4864775;29;20053;-85
2021/08/12 04:03:57;;;;;;;6.07;4.60;;;17.00;92.10;;;;;;4863279;29;20459;-84
2021/08/12 04:06:23;;;;;;;6.07;4.35;;;17.00;92.20;;;;;;4864521;29;20057;-85
2021/08/12 04:08:49;;;;;;;6.30;4.55;;;17.00;92.30;;;;;;4864459;29;20476;-85
2021/08/12 04:11:14;;;;;;;6.53;4.95;;;16.90;92.30;;;;;;4863790;29;20049;-86
2021/08/12 04:13:40;;;;;;;6.32;4.50;;;16.90;92.30;;;;;;4864274;29;20132;-86
2021/08/12 04:16:06;;;;;;;6.32;4.22;;;16.90;92.30;;;;;;4864174;29;20128;-86
2021/08/12 04:18:32;;;;;;;7.20;4.43;;;16.90;92.10;;;;;;4863384;29;20045;-86
2021/08/12 04:20:57;;;;;;;7.75;5.00;;;16.80;91.90;;;;;;4863917;29;20053;-86
2021/08/12 04:23:23;;;;;;;6.05;4.55;;;16.80;92.20;;;;;;4863897;29;20467;-85
2021/08/12 04:25:51;;;;;;;6.25;4.72;;;16.80;92.10;;;;;;4863023;29;20061;-85
2021/08/12 04:28:20;;;;;;;6.15;4.60;;;16.80;92.10;;;;;;4864092;29;20053;-84
2021/08/12 04:30:48;;;;;;;6.25;4.60;;;16.80;92.10;;;;;;4864442;29;20077;-85
2021/08/12 04:33:14;;;;;;;6.05;4.97;;;16.70;92.20;;;;;;4863399;29;20080;-85
2021/08/12 04:35:40;;;;;;;7.05;5.00;;;16.70;92.20;;;;;;4862885;29;20058;-85
2021/08/12 04:38:05;;;;;;;7.82;5.40;;;16.70;92.10;;;;;;4864089;29;20050;-85
2021/08/12 04:40:31;;;;;;;6.80;5.28;;;16.70;92.20;;;;;;4862960;29;20056;-85
2021/08/12 04:42:56;;;;;;;7.68;5.43;;;16.70;92.20;;;;;;4863866;29;20049;-85
2021/08/12 04:45:23;;;;;;;6.78;5.43;;;16.70;92.20;;;;;;4863544;29;20057;-85
2021/08/12 04:47:48;;;;;;;7.15;6.00;;;16.60;92.20;;;;;;4863006;29;20057;-85
2021/08/12 04:50:14;;;;;;;7.72;5.68;;;16.60;92.30;;;;;;4863973;29;20049;-85
2021/08/12 04:52:41;;;;;;;8.13;5.90;;;16.60;92.30;;;;;;4863766;29;20053;-85
2021/08/12 04:55:10;;;;;;;7.50;6.07;;;16.50;92.30;;;;;;4863050;29;20057;-85
2021/08/12 04:57:36;;;;;;;8.65;6.63;;;16.60;92.30;;;;;;4863746;29;20053;-86
2021/08/12 05:00:04;;;;;;;8.13;6.68;;;16.50;92.30;;;;;;4863502;29;20057;-85
2021/08/12 05:02:29;;;;;;;8.20;6.13;;;16.50;92.30;;;;;;4864365;29;20132;-85
2021/08/12 05:04:55;;;;;;;8.23;6.18;;;16.50;92.30;;;;;;4863739;29;20140;-85
2021/08/12 05:07:21;;;;;;;7.85;6.30;;;16.50;92.20;;;;;;4863201;29;20447;-85
2021/08/12 05:09:46;;;;;;;8.48;6.93;;;16.50;92.40;;;;;;4863749;29;20057;-85
2021/08/12 05:12:17;;;;;;;9.30;6.90;;;16.50;92.40;;;;;;4863554;29;20045;-86
2021/08/12 05:14:42;;;;;;;7.88;6.80;;;16.50;92.80;;;;;;4862615;29;20050;-86
2021/08/12 05:17:08;;;;;;;7.90;6.30;;;16.50;92.40;;;;;;4863631;29;20550;-86
2021/08/12 05:19:33;;;;;;;8.90;7.43;;;16.50;92.40;;;;;;4863640;29;20055;-85
2021/08/12 05:21:59;;;;;;;9.05;7.20;;;16.40;92.40;;;;;;4862655;29;20414;-85
2021/08/12 05:24:25;;;;;;;9.30;6.97;;;16.40;92.40;;;;;;4863267;29;20496;-86
2021/08/12 05:26:51;;;;;;;8.35;6.90;;;16.40;92.40;;;;;;4863660;29;20097;-85
2021/08/12 05:29:16;;;;;;;9.82;7.57;;;16.50;92.30;;;;;;4862825;29;20486;-85
2021/08/12 05:31:42;;;;;;;10.00;8.05;;;16.40;92.40;;;;;;4863550;29;20053;-86
2021/08/12 05:34:08;;;;;;;9.30;7.22;;;16.40;92.50;;;;;;4863225;29;20213;-85
2021/08/12 05:36:33;;;;;;;9.88;7.45;;;16.40;92.20;;;;;;4862731;29;20053;-86
2021/08/12 05:39:00;;;;;;;9.73;7.90;;;16.40;92.10;;;;;;4863558;29;20057;-86
2021/08/12 05:41:26;;;;;;;9.60;7.93;;;16.40;92.10;;;;;;4863410;29;20132;-86
2021/08/12 05:43:52;;;;;;;10.27;7.43;;;16.40;92.10;;;;;;4861981;29;20109;-86
2021/08/12 05:46:18;;;;;;;10.48;7.38;;;16.40;92.00;;;;;;4862417;29;20205;-86
2021/08/12 05:48:43;;;;;;;10.02;7.97;;;16.40;91.90;;;;;;4863011;29;20512;-86
2021/08/12 05:51:09;;;;;;;9.18;7.75;;;16.40;92.00;;;;;;4861785;29;20187;-86
2021/08/12 05:53:34;;;;;;;10.70;8.65;;;16.40;91.90;;;;;;4862722;29;20049;-85
2021/08/12 05:56:02;;;;;;;13.85;12.00;;;16.40;91.80;;;;;;4862401;29;20136;-87
2021/08/12 05:58:30;;;;;;;11.02;9.60;;;16.40;91.90;;;;;;4861643;29;20144;-85
2021/08/12 06:00:56;;;;;;;9.90;8.68;;;16.50;91.70;;;;;;4862430;29;20073;-85
2021/08/12 06:03:22;;;;;;;10.20;8.38;;;16.40;92.00;;;;;;4861574;29;20487;-86
2021/08/12 06:05:48;;;;;;;11.23;9.45;;;16.40;92.00;;;;;;4861924;29;20146;-86
2021/08/12 06:08:19;;;;;;;9.80;8.18;;;16.50;92.10;;;;;;4862125;29;20053;-85
2021/08/12 06:10:45;;;;;;;10.40;8.80;;;16.50;91.90;;;;;;4861001;29;20092;-85
2021/08/12 06:13:10;;;;;;;12.02;9.55;;;16.50;92.00;;;;;;4862108;29;20069;-85
2021/08/12 06:15:39;;;;;;;10.10;8.55;;;16.50;92.10;;;;;;4861837;29;20057;-86
2021/08/12 06:18:07;;;;;;;9.60;8.10;;;16.50;92.00;;;;;;4860965;29;20555;-86
2021/08/12 06:20:36;;;;;;;10.52;8.43;;;16.50;91.60;;;;;;4861925;29;20101;-86
2021/08/12 06:23:05;;;;;;;10.13;8.65;;;16.60;91.60;;;;;;4861609;29;20080;-86
2021/08/12 06:25:34;;;;;;;10.25;8.43;;;16.60;91.80;;;;;;4860564;29;20140;-85
2021/08/12 06:28:00;;;;;;;12.63;10.13;;;16.60;91.70;;;;;;4861761;29;20049;-85
2021/08/12 06:30:27;;;;;;;10.55;8.90;;;16.60;91.50;;;;;;4861694;29;20049;-86
2021/08/12 06:32:53;;;;;;;15.95;14.23;;;16.70;91.50;;;;;;4860952;29;20050;-86
2021/08/12 06:35:19;;;;;;;17.08;13.98;;;16.70;91.80;;;;;;4861491;29;20139;-86
2021/08/12 06:37:49;;;;;;;17.80;11.07;;;16.70;91.80;;;;;;4861996;29;20046;-86
2021/08/12 06:40:17;;;;;;;11.48;9.20;;;16.80;91.80;;;;;;4859988;29;20061;-86
2021/08/12 06:42:45;;;;;;;12.02;9.35;;;16.80;91.70;;;;;;4862110;29;20737;-85
2021/08/12 06:45:12;;;;;;;17.13;14.38;;;16.80;91.80;;;;;;4862102;29;20057;-85
2021/08/12 06:47:38;;;;;;;24.60;20.02;;;16.90;92.10;;;;;;4860642;29;20057;-86
2021/08/12 06:50:24;;;;;;;20.55;15.73;;;17.00;92.60;;;;;;4860681;29;20380;-86
2021/08/12 06:52:50;;;;;;;20.90;16.50;;;17.00;92.50;;;;;;4861270;29;20056;-85
2021/08/12 06:55:16;;;;;;;29.73;19.15;;;17.10;92.40;;;;;;4861806;29;20089;-86
2021/08/12 06:57:42;;;;;;;41.28;21.98;;;17.10;92.80;;;;;;4861033;29;20076;-86
2021/08/12 07:00:10;;;;;;;20.10;16.33;;;17.20;93.00;;;;;;4860668;29;20077;-86
2021/08/12 07:02:45;;;;;;;13.23;10.85;;;17.20;92.90;;;;;;4860508;29;20057;-86
2021/08/12 07:05:11;;;;;;;24.88;19.13;;;17.20;92.50;;;;;;4861573;29;20498;-86
2021/08/12 07:07:45;;;;;;;29.45;20.60;;;17.30;92.70;;;;;;4860875;29;20132;-86
2021/08/12 07:10:11;;;;;;;26.77;22.17;;;17.30;93.00;;;;;;4862280;29;20088;-85
2021/08/12 07:12:38;;;;;;;25.83;20.23;;;17.40;93.30;;;;;;4861767;29;20136;-86
2021/08/12 07:15:05;;;;;;;19.70;16.05;;;17.50;93.30;;;;;;4861019;29;20076;-84
2021/08/12 07:17:33;;;;;;;22.40;19.67;;;17.60;93.10;;;;;;4861605;29;20056;-85
2021/08/12 07:19:59;;;;;;;20.38;16.75;;;17.60;93.00;;;;;;4861393;29;20090;-85
2021/08/12 07:22:25;;;;;;;26.50;19.80;;;17.70;92.60;;;;;;4860680;29;20075;-85
2021/08/12 07:24:50;;;;;;;24.27;19.60;;;17.70;92.60;;;;;;4861035;29;20482;-86
2021/08/12 07:27:16;;;;;;;21.45;16.23;;;17.80;92.70;;;;;;4861254;29;20050;-86
2021/08/12 07:29:42;;;;;;;22.98;18.00;;;17.80;92.40;;;;;;4859414;29;20053;-86
2021/08/12 07:32:08;;;;;;;22.30;18.67;;;17.90;92.20;;;;;;4861069;29;20455;-86
2021/08/12 07:34:34;;;;;;;25.25;20.08;;;18.00;92.60;;;;;;4861194;29;20057;-87
2021/08/12 07:36:59;;;;;;;25.10;18.27;;;18.10;92.90;;;;;;4860532;29;20415;-86
2021/08/12 07:39:25;;;;;;;22.83;17.60;;;18.20;93.00;;;;;;4861138;29;20094;-88
2021/08/12 07:41:51;;;;;;;21.95;16.85;;;18.30;92.90;;;;;;4860221;29;20098;-87
2021/08/12 07:44:16;;;;;;;22.05;16.95;;;18.40;92.70;;;;;;4860824;29;20473;-86
2021/08/12 07:46:42;;;;;;;20.02;15.57;;;18.50;92.80;;;;;;4860801;29;20144;-86
2021/08/12 07:49:08;;;;;;;23.45;16.88;;;18.60;92.40;;;;;;4860107;29;20245;-85
2021/08/12 07:51:33;;;;;;;19.90;15.77;;;18.70;92.30;;;;;;4860908;29;20054;-85
2021/08/12 07:53:59;;;;;;;19.15;15.15;;;18.80;92.10;;;;;;4860939;29;20086;-87
2021/08/12 07:56:25;;;;;;;22.52;15.32;;;19.00;91.90;;;;;;4860151;29;20050;-86
2021/08/12 07:58:50;;;;;;;17.00;14.38;;;19.10;91.70;;;;;;4860825;29;20053;-85
2021/08/12 08:01:17;;;;;;;19.77;14.32;;;19.20;91.40;;;;;;4860731;29;20054;-86
2021/08/12 08:03:44;;;;;;;18.75;14.80;;;19.30;91.10;;;;;;4859626;29;20057;-86
2021/08/12 08:06:10;;;;;;;17.30;13.55;;;19.40;91.20;;;;;;4860627;29;20102;-85
2021/08/12 08:08:36;;;;;;;19.98;13.18;;;19.50;90.60;;;;;;4861087;29;20057;-86
2021/08/12 08:11:02;;;;;;;17.05;13.00;;;19.60;90.60;;;;;;4862779;29;20053;-87
2021/08/12 08:13:28;;;;;;;19.13;13.43;;;19.70;90.50;;;;;;4863996;29;20049;-85
2021/08/12 08:15:54;;;;;;;16.10;12.95;;;19.80;90.30;;;;;;4863900;29;20406;-87
2021/08/12 08:18:19;;;;;;;19.50;13.52;;;19.90;90.10;;;;;;4862867;29;20050;-87
2021/08/12 08:20:45;;;;;;;19.90;12.95;;;19.90;90.20;;;;;;4863870;29;20057;-86
2021/08/12 08:23:11;;;;;;;17.00;13.43;;;20.00;89.90;;;;;;4863471;29;20509;-87
2021/08/12 08:25:38;;;;;;;17.13;12.15;;;20.10;89.10;;;;;;4862439;29;20566;-86
2021/08/12 08:28:05;;;;;;;15.88;11.90;;;20.20;88.80;;;;;;4863694;29;20060;-86
2021/08/12 08:30:33;;;;;;;14.65;11.80;;;20.30;88.60;;;;;;4863557;29;20053;-85
2021/08/12 08:32:59;;;;;;;15.63;11.90;;;20.40;87.80;;;;;;4862616;29;20058;-86
2021/08/12 08:35:25;;;;;;;15.40;11.48;;;20.50;87.50;;;;;;4863667;29;20068;-85
2021/08/12 08:37:52;;;;;;;14.02;11.05;;;20.60;87.80;;;;;;4863428;29;20060;-86
2021/08/12 08:40:18;;;;;;;13.15;10.30;;;20.70;87.50;;;;;;4862797;29;20053;-86
2021/08/12 08:42:45;;;;;;;13.70;10.05;;;20.80;87.20;;;;;;4863433;29;20546;-86
2021/08/12 08:45:13;;;;;;;13.52;9.82;;;20.90;86.90;;;;;;4862664;29;20487;-86
2021/08/12 08:47:40;;;;;;;13.32;9.60;;;21.00;87.50;;;;;;4863624;29;20060;-86
2021/08/12 08:50:07;;;;;;;13.32;8.93;;;21.10;86.40;;;;;;4863631;29;20061;-86
2021/08/12 08:52:35;;;;;;;15.00;9.45;;;21.20;84.90;;;;;;4862901;29;20049;-87
2021/08/12 08:55:01;;;;;;;11.88;7.95;;;21.30;84.60;;;;;;4863573;29;20076;-86
2021/08/12 08:57:27;;;;;;;11.30;7.25;;;21.40;84.20;;;;;;4863617;29;20491;-86
2021/08/12 08:59:53;;;;;;;12.10;8.32;;;21.40;82.90;;;;;;4862617;29;20132;-87
2021/08/12 09:02:18;;;;;;;14.35;8.63;;;21.50;82.30;;;;;;4863200;29;20077;-87
2021/08/12 09:04:45;;;;;;;11.45;8.15;;;21.60;82.60;;;;;;4863119;29;20054;-87
2021/08/12 09:07:10;;;;;;;11.82;8.57;;;21.70;82.00;;;;;;4862270;29;20069;-85
2021/08/12 09:09:37;;;;;;;12.45;8.77;;;21.70;81.90;;;;;;4863202;29;20061;-86
2021/08/12 09:12:06;;;;;;;14.57;9.18;;;21.80;82.40;;;;;;4862912;29;20128;-87
2021/08/12 09:14:34;;;;;;;13.98;9.82;;;21.90;81.90;;;;;;4862241;29;20125;-88
2021/08/12 09:17:21;;;;;;;15.85;9.80;;;22.00;81.20;;;;;;4862997;29;20558;-87
2021/08/12 09:20:02;;;;;;;15.05;9.88;;;22.10;81.80;;;;;;4863322;29;20141;-88
2021/08/12 09:22:29;;;;;;;16.80;11.15;;;22.20;81.60;;;;;;4861879;29;20050;-87
2021/08/12 09:24:55;;;;;;;18.13;11.15;;;22.30;82.10;;;;;;4862508;29;20194;-88
2021/08/12 09:27:23;;;;;;;15.43;10.25;;;22.30;81.10;;;;;;4862395;29;20061;-88
2021/08/12 09:29:48;;;;;;;14.77;10.75;;;22.40;81.10;;;;;;4862936;29;20057;-87
2021/08/12 09:32:16;;;;;;;15.48;11.50;;;22.50;79.80;;;;;;4862873;29;20068;-87
2021/08/12 09:34:47;;;;;;;15.50;10.98;;;22.50;79.30;;;;;;4861826;29;20502;-87
2021/08/12 09:37:13;;;;;;;15.20;9.45;;;22.60;79.50;;;;;;4862506;29;20076;-88
2021/08/12 09:39:40;;;;;;;14.50;9.20;;;22.70;80.00;;;;;;4862741;29;20443;-90
2021/08/12 09:42:06;;;;;;;13.50;9.23;;;22.70;80.20;;;;;;4861857;29;20058;-88
2021/08/12 09:44:41;;;;;;;14.25;8.20;;;22.80;79.30;;;;;;4862686;29;20058;-88
2021/08/12 09:47:16;;;;;;;15.93;8.93;;;22.90;79.80;;;;;;4862609;29;20509;-86
2021/08/12 09:49:49;;;;;;;13.20;8.40;;;22.90;79.00;;;;;;4861486;29;20061;-88
2021/08/12 09:52:32;;;;;;;13.80;8.27;;;23.00;79.80;;;;;;4862387;29;20057;-87
2021/08/12 09:55:12;;;;;;;11.07;8.43;;;23.10;78.10;;;;;;4862495;29;20078;-88
2021/08/12 09:57:44;;;;;;;11.88;8.95;;;23.10;78.60;;;;;;4862010;29;20073;-87
2021/08/12 10:00:23;;;;;;;13.20;8.48;;;23.20;78.10;;;;;;4862118;29;20049;-86
2021/08/12 10:02:49;;;;;;;10.10;6.45;;;23.20;78.50;;;;;;4862470;29;20387;-89
2021/08/12 10:05:15;;;;;;;11.90;6.72;;;23.30;76.90;;;;;;4864516;29;20056;-88
2021/08/12 10:07:42;;;;;;;10.32;6.32;;;23.30;77.30;;;;;;4862880;29;20111;-86
2021/08/12 10:10:19;;;;;;;13.75;6.40;;;23.40;77.90;;;;;;4861385;29;20056;-87
2021/08/12 10:12:55;;;;;;;10.32;6.30;;;23.40;75.90;;;;;;4862075;29;20562;-88
2021/08/12 10:15:40;;;;;;;9.80;6.05;;;23.50;75.90;;;;;;4862250;29;20498;-88
2021/08/12 10:18:05;;;;;;;9.82;7.07;;;23.60;77.20;;;;;;4861485;29;20053;-87
2021/08/12 10:20:34;;;;;;;13.82;7.43;;;23.60;76.20;;;;;;4861563;29;20054;-86
2021/08/12 10:23:05;;;;;;;15.43;7.30;;;23.70;76.30;;;;;;4862025;29;20065;-89
2021/08/12 10:25:34;;;;;;;9.45;6.60;;;23.70;74.90;;;;;;4860980;29;20540;-87
2021/08/12 10:28:12;;;;;;;11.35;7.55;;;23.80;76.70;;;;;;4862190;29;20559;-88
2021/08/12 10:30:39;;;;;;;12.45;8.40;;;23.80;75.30;;;;;;4862702;29;20058;-88
2021/08/12 10:33:07;;;;;;;12.02;7.00;;;23.80;74.50;;;;;;4861579;29;20049;-87
2021/08/12 10:35:36;;;;;;;8.18;4.95;;;23.90;76.00;;;;;;4861944;29;20068;-88
2021/08/12 10:38:03;;;;;;;9.45;5.50;;;24.00;74.10;;;;;;4860772;29;20061;-86
2021/08/12 10:40:38;;;;;;;9.55;5.05;;;24.00;72.70;;;;;;4861676;29;20093;-85
2021/08/12 10:43:05;;;;;;;8.82;5.00;;;24.00;72.70;;;;;;4861896;29;20080;-86
2021/08/12 10:45:31;;;;;;;8.07;5.45;;;24.20;71.60;;;;;;4860674;29;20066;-86
2021/08/12 10:47:59;;;;;;;11.45;5.47;;;24.20;71.10;;;;;;4861845;29;20402;-88
2021/08/12 10:50:27;;;;;;;10.95;5.70;;;24.20;71.00;;;;;;4861172;29;20049;-86
2021/08/12 10:53:09;;;;;;;11.27;5.07;;;24.30;70.70;;;;;;4860410;29;20521;-87
2021/08/12 10:55:56;;;;;;;10.27;5.20;;;24.30;70.10;;;;;;4861558;29;20487;-87
2021/08/12 11:00:52;;;;;;;11.30;5.65;;;24.50;70.90;;;;;;4860330;29;20060;-85
2021/08/12 11:03:33;;;;;;;9.18;5.40;;;24.50;73.00;;;;;;4861533;29;20060;-86
2021/08/12 11:06:04;;;;;;;7.80;5.40;;;24.60;72.60;;;;;;4860768;29;20061;-86
2021/08/12 11:08:48;;;;;;;9.68;5.38;;;24.60;71.30;;;;;;4861611;29;20064;-87
2021/08/12 11:11:23;;;;;;;8.23;4.57;;;24.70;69.90;;;;;;4861622;29;20053;-87
2021/08/12 11:14:04;;;;;;;9.88;5.20;;;24.70;70.50;;;;;;4861141;29;20538;-86
2021/08/12 11:16:41;;;;;;;11.77;4.93;;;24.80;71.20;;;;;;4861254;29;20057;-87
2021/08/12 11:19:09;;;;;;;7.32;4.97;;;24.90;70.20;;;;;;4861386;29;20065;-87
2021/08/12 11:21:40;;;;;;;9.50;4.60;;;24.90;73.00;;;;;;4860368;29;20491;-88
2021/08/12 11:24:07;;;;;;;7.78;4.70;;;25.00;71.30;;;;;;4861376;29;20487;-87
2021/08/12 11:26:44;;;;;;;8.90;4.63;;;25.10;72.00;;;;;;4861074;29;20069;-86
2021/08/12 11:29:38;;;;;;;9.30;4.00;;;25.10;71.50;;;;;;4860568;29;20136;-88
2021/08/12 11:32:11;;;;;;;8.75;4.13;;;25.20;70.20;;;;;;4861092;29;20135;-87
2021/08/12 11:34:52;;;;;;;7.75;4.20;;;25.20;69.20;;;;;;4860549;29;20090;-87
2021/08/12 11:37:26;;;;;;;10.00;4.47;;;25.30;68.20;;;;;;4860986;29;20057;-90
2021/08/12 11:39:54;;;;;;;8.65;4.32;;;25.30;68.00;;;;;;4860959;29;20073;-87
2021/08/12 11:42:30;;;;;;;8.80;4.65;;;25.30;68.00;;;;;;4860251;29;20426;-87
2021/08/12 11:44:59;;;;;;;7.38;4.80;;;25.40;67.00;;;;;;4863264;29;20053;-88
2021/08/12 11:47:25;;;;;;;7.80;4.55;;;25.40;67.50;;;;;;4864450;29;20077;-87
2021/08/12 11:49:52;;;;;;;8.85;5.32;;;25.40;68.00;;;;;;4863611;29;20057;-88
2021/08/12 11:52:26;;;;;;;7.30;4.65;;;25.50;68.00;;;;;;4864530;29;20128;-88
2021/08/12 11:55:01;;;;;;;8.48;5.10;;;25.50;67.70;;;;;;4864215;29;20061;-88
2021/08/12 11:57:50;;;;;;;8.85;4.70;;;25.60;67.60;;;;;;4864259;29;20113;-88
2021/08/12 12:00:18;;;;;;;10.48;5.28;;;25.60;67.10;;;;;;4863941;29;20578;-88
2021/08/12 12:02:49;;;;;;;10.63;5.53;;;25.60;66.70;;;;;;4863514;29;20053;-89
2021/08/12 12:05:16;;;;;;;8.73;5.60;;;25.70;68.10;;;;;;4864439;29;20053;-87
2021/08/12 12:07:45;;;;;;;8.65;5.82;;;25.70;69.20;;;;;;4864299;29;20050;-88
2021/08/12 12:10:11;;;;;;;10.40;6.10;;;25.80;69.30;;;;;;4863582;29;20053;-87
2021/08/12 12:12:36;;;;;;;10.35;5.80;;;25.80;67.10;;;;;;4864040;29;20525;-88
2021/08/12 12:15:02;;;;;;;8.95;6.20;;;25.80;68.50;;;;;;4863803;29;20161;-88
2021/08/12 12:17:33;;;;;;;10.07;6.10;;;25.90;67.80;;;;;;4863356;29;20077;-90
2021/08/12 12:20:08;;;;;;;10.60;5.57;;;25.90;67.40;;;;;;4863986;29;20079;-87
2021/08/12 12:22:35;;;;;;;10.10;6.35;;;25.90;68.70;;;;;;4863888;29;20053;-89
2021/08/12 12:25:02;;;;;;;8.15;5.90;;;26.00;67.50;;;;;;4862769;29;20524;-88
2021/08/12 12:27:28;;;;;;;11.02;6.35;;;26.00;70.70;;;;;;4863813;29;20067;-88
2021/08/12 12:30:10;;;;;;;12.60;7.00;;;26.00;70.00;;;;;;4863895;29;20499;-89
2021/08/12 12:32:37;;;;;;;9.63;6.32;;;26.00;67.60;;;;;;4863680;29;20435;-90
2021/08/12 12:35:06;;;;;;;11.32;6.93;;;26.10;69.80;;;;;;4863944;29;20137;-88
2021/08/12 12:37:33;;;;;;;9.73;6.65;;;26.10;69.90;;;;;;4862934;29;20053;-86
2021/08/12 12:39:59;;;;;;;9.93;6.60;;;26.10;70.30;;;;;;4863657;29;20483;-90
2021/08/12 12:42:25;;;;;;;9.68;6.85;;;26.20;73.20;;;;;;4863711;29;20136;-87
2021/08/12 12:45:06;;;;;;;10.45;7.63;;;26.20;72.70;;;;;;4862784;29;20422;-87
2021/08/12 12:47:33;;;;;;;9.20;5.97;;;26.20;68.50;;;;;;4863745;29;20132;-87
2021/08/12 12:50:15;;;;;;;9.35;6.00;;;26.20;71.40;;;;;;4863634;29;20076;-88